createdAt,value
2023-03-12T00:00:17.621Z,1.67
2023-03-12T00:02:47.003Z,1.75
2023-03-12T00:05:16.334Z,1.71
2023-03-12T00:07:45.992Z,1.73
2023-03-12T00:10:15.470Z,1.76
2023-03-12T00:12:45.210Z,1.73
2023-03-12T00:15:14.831Z,1.73
2023-03-12T00:17:44.388Z,1.72
2023-03-12T00:20:14.332Z,1.78
2023-03-12T00:22:43.597Z,1.81
2023-03-12T00:25:15.248Z,1.77
2023-03-12T00:27:45.055Z,1.78
2023-03-12T00:30:14.682Z,1.77
2023-03-12T00:32:44.329Z,1.77
2023-03-12T00:35:14.119Z,1.77
2023-03-12T00:37:43.449Z,1.78
2023-03-12T00:40:13.878Z,1.81
2023-03-12T00:42:43.130Z,1.85
2023-03-12T00:45:13.105Z,1.87
2023-03-12T00:47:42.377Z,1.88
2023-03-12T00:50:12.343Z,1.88
2023-03-12T00:52:42.000Z,1.83
2023-03-12T00:55:11.391Z,1.82
2023-03-12T00:57:40.657Z,1.80
2023-03-12T01:00:12.318Z,1.79
2023-03-12T01:02:42.078Z,1.84
2023-03-12T01:05:13.319Z,1.83
2023-03-12T01:07:43.035Z,1.83
2023-03-12T01:10:14.604Z,1.87
2023-03-12T01:12:44.685Z,1.87
2023-03-12T01:15:16.658Z,1.83
2023-03-12T01:17:45.928Z,1.88
2023-03-12T01:20:15.521Z,1.85
2023-03-12T01:22:44.857Z,1.81
2023-03-12T01:25:14.416Z,1.84
2023-03-12T01:27:43.723Z,1.86
2023-03-12T01:30:13.786Z,1.88
2023-03-12T01:32:43.818Z,1.87
2023-03-12T01:35:13.474Z,1.84
2023-03-12T01:37:42.796Z,1.88
2023-03-12T01:40:20.452Z,1.88
2023-03-12T01:42:59.801Z,1.89
2023-03-12T01:46:06.155Z,1.94
2023-03-12T01:48:39.481Z,1.91
2023-03-12T01:51:11.902Z,1.90
2023-03-12T01:53:43.671Z,1.92
2023-03-12T01:56:14.680Z,1.91
2023-03-12T01:58:46.636Z,1.95
2023-03-12T02:01:17.410Z,2.02
2023-03-12T02:03:48.850Z,2.04
2023-03-12T02:06:20.177Z,2.01
2023-03-12T02:08:49.904Z,2.02
2023-03-12T02:11:19.460Z,1.98
2023-03-12T02:13:50.088Z,1.96
2023-03-12T02:16:19.602Z,1.92
2023-03-12T02:18:50.104Z,1.91
2023-03-12T02:21:25.872Z,1.87
2023-03-12T02:24:23.904Z,1.87
2023-03-12T02:26:53.568Z,1.84
2023-03-12T02:29:25.507Z,1.84
2023-03-12T02:31:56.937Z,1.86
2023-03-12T02:34:27.938Z,1.88
2023-03-12T02:36:57.308Z,1.87
2023-03-12T02:39:26.830Z,1.97
2023-03-12T02:41:57.853Z,1.97
2023-03-12T02:44:30.136Z,1.99
2023-03-12T02:47:01.685Z,2.02
2023-03-12T02:49:33.976Z,2.08
2023-03-12T02:52:04.367Z,2.06
2023-03-12T02:54:33.969Z,2.12
2023-03-12T02:57:03.348Z,2.08
2023-03-12T02:59:33.614Z,2.08
2023-03-12T03:02:04.448Z,2.08
2023-03-12T03:04:34.978Z,2.08
2023-03-12T03:07:04.418Z,2.04
2023-03-12T03:09:33.914Z,2.04
2023-03-12T03:12:03.924Z,2.05
2023-03-12T03:14:34.210Z,2.02
2023-03-12T03:17:03.626Z,2.05
2023-03-12T03:19:33.044Z,2.05
2023-03-12T03:22:02.333Z,2.05
2023-03-12T03:24:32.286Z,2.04
2023-03-12T03:27:01.897Z,2.02
2023-03-12T03:29:31.412Z,1.94
2023-03-12T03:32:01.621Z,1.97
2023-03-12T03:34:31.279Z,1.98
2023-03-12T03:37:00.818Z,1.95
2023-03-12T03:39:31.480Z,1.95
2023-03-12T03:42:01.072Z,1.94
2023-03-12T03:44:32.160Z,1.92
2023-03-12T03:47:02.571Z,1.94
2023-03-12T03:49:32.561Z,1.90
2023-03-12T03:52:01.909Z,1.83
2023-03-12T03:54:33.954Z,1.77
2023-03-12T03:57:04.352Z,1.72
2023-03-12T03:59:33.892Z,1.67
2023-03-12T04:02:03.832Z,1.64
2023-03-12T04:04:34.681Z,1.71
2023-03-12T04:07:04.146Z,1.71
2023-03-12T04:09:34.760Z,1.69
2023-03-12T04:12:04.306Z,1.76
2023-03-12T04:14:34.964Z,1.77
2023-03-12T04:17:04.548Z,1.76
2023-03-12T04:19:33.890Z,1.76
2023-03-12T04:22:04.377Z,1.85
2023-03-12T04:24:34.193Z,1.85
2023-03-12T04:27:04.405Z,1.78
2023-03-12T04:29:35.472Z,1.76
2023-03-12T04:32:05.577Z,1.66
2023-03-12T04:34:35.166Z,1.59
2023-03-12T04:37:05.256Z,1.58
2023-03-12T04:39:34.603Z,1.59
2023-03-12T04:42:04.104Z,1.51
2023-03-12T04:44:34.256Z,1.43
2023-03-12T04:47:04.106Z,1.41
2023-03-12T04:49:33.961Z,1.34
2023-03-12T04:52:03.537Z,1.31
2023-03-12T04:54:33.404Z,1.29
2023-03-12T04:57:02.906Z,1.29
2023-03-12T04:59:33.025Z,1.27
2023-03-12T05:02:02.379Z,1.29
2023-03-12T05:04:33.698Z,1.29
2023-03-12T05:07:03.221Z,1.29
2023-03-12T05:09:32.794Z,1.32
2023-03-12T05:12:02.137Z,1.33
2023-03-12T05:14:31.567Z,1.38
2023-03-12T05:17:00.980Z,1.43
2023-03-12T05:19:30.262Z,1.47
2023-03-12T05:21:59.608Z,1.46
2023-03-12T05:24:29.029Z,1.53
2023-03-12T05:26:58.592Z,1.56
2023-03-12T05:29:29.548Z,1.57
2023-03-12T05:31:59.041Z,1.60
2023-03-12T05:34:30.363Z,1.63
2023-03-12T05:37:00.268Z,1.62
2023-03-12T05:39:30.235Z,1.63
2023-03-12T05:42:01.297Z,1.65
2023-03-12T05:44:31.312Z,1.66
2023-03-12T05:47:00.875Z,1.67
2023-03-12T05:49:31.228Z,1.70
2023-03-12T05:52:00.800Z,1.71
2023-03-12T05:54:30.110Z,1.72
2023-03-12T05:56:59.669Z,1.76
2023-03-12T05:59:29.648Z,1.80
2023-03-12T06:01:59.678Z,1.84
2023-03-12T06:04:30.034Z,1.84
2023-03-12T06:06:59.278Z,1.85
2023-03-12T06:09:29.531Z,1.85
2023-03-12T06:11:58.827Z,1.89
2023-03-12T06:14:28.326Z,1.84
2023-03-12T06:16:58.263Z,1.83
2023-03-12T06:19:27.862Z,1.82
2023-03-12T06:21:57.164Z,1.81
2023-03-12T06:24:27.458Z,1.85
2023-03-12T06:26:58.413Z,1.78
2023-03-12T06:29:27.800Z,1.81
2023-03-12T06:31:57.106Z,1.79
2023-03-12T06:34:26.439Z,1.76
2023-03-12T06:36:55.743Z,1.81
2023-03-12T06:39:25.139Z,1.78
2023-03-12T06:41:54.465Z,1.79
2023-03-12T06:44:24.164Z,1.83
2023-03-12T06:46:54.056Z,1.82
2023-03-12T06:49:23.440Z,1.78
2023-03-12T06:51:52.989Z,1.80
2023-03-12T06:54:22.224Z,1.83
2023-03-12T06:56:51.559Z,1.85
2023-03-12T06:59:21.809Z,1.92
2023-03-12T07:01:51.448Z,1.89
2023-03-12T07:04:20.770Z,1.92
2023-03-12T07:06:51.404Z,1.97
2023-03-12T07:09:21.641Z,2.02
2023-03-12T07:11:50.994Z,2.02
2023-03-12T07:14:21.394Z,2.07
2023-03-12T07:16:51.424Z,2.05
2023-03-12T07:19:20.740Z,2.10
2023-03-12T07:21:50.197Z,2.23
2023-03-12T07:24:19.608Z,2.27
2023-03-12T07:26:48.876Z,2.34
2023-03-12T07:29:18.123Z,2.48
2023-03-12T07:31:47.553Z,2.51
2023-03-12T07:34:17.240Z,2.51
2023-03-12T07:36:46.697Z,2.56
2023-03-12T07:39:16.006Z,2.64
2023-03-12T07:41:45.258Z,2.66
2023-03-12T07:44:14.784Z,2.71
2023-03-12T07:46:44.585Z,2.76
2023-03-12T07:49:15.415Z,2.78
2023-03-12T07:51:50.739Z,2.81
2023-03-12T07:54:20.367Z,2.88
2023-03-12T07:56:53.310Z,2.96
2023-03-12T07:59:26.176Z,3.00
2023-03-12T08:02:16.789Z,3.07
2023-03-12T08:04:46.933Z,3.09
2023-03-12T08:07:16.879Z,3.14
2023-03-12T08:09:47.945Z,3.18
2023-03-12T08:12:17.736Z,3.18
2023-03-12T08:14:47.109Z,3.26
2023-03-12T08:17:17.450Z,3.28
2023-03-12T08:19:46.779Z,3.30
2023-03-12T08:22:16.091Z,3.43
2023-03-12T08:24:45.350Z,3.45
2023-03-12T08:27:15.115Z,3.57
2023-03-12T08:29:44.442Z,3.58
2023-03-12T08:32:14.276Z,3.68
2023-03-12T08:34:43.632Z,3.74
2023-03-12T08:37:12.965Z,3.80
2023-03-12T08:39:42.199Z,3.90
2023-03-12T08:42:11.535Z,3.97
2023-03-12T08:44:40.752Z,4.02
2023-03-12T08:47:09.996Z,4.13
2023-03-12T08:49:39.314Z,4.33
2023-03-12T08:52:08.654Z,4.45
2023-03-12T08:54:38.136Z,4.60
2023-03-12T08:57:07.377Z,4.67
2023-03-12T08:59:37.494Z,4.77
2023-03-12T09:02:06.863Z,4.90
2023-03-12T09:04:36.657Z,5.02
2023-03-12T09:07:07.108Z,5.10
2023-03-12T09:09:36.520Z,5.25
2023-03-12T09:12:06.689Z,5.37
2023-03-12T09:15:02.475Z,5.48
2023-03-12T09:17:07.279Z,5.65
2023-03-12T09:19:36.954Z,5.78
2023-03-12T09:22:06.637Z,5.93
2023-03-12T09:24:35.924Z,6.03
2023-03-12T09:27:05.380Z,6.22
2023-03-12T09:29:34.671Z,6.41
2023-03-12T09:32:05.919Z,6.50
2023-03-12T09:34:35.013Z,6.61
2023-03-12T09:37:04.560Z,6.72
2023-03-12T09:39:34.229Z,6.86
2023-03-12T09:42:06.840Z,6.94
2023-03-12T09:44:36.512Z,6.93
2023-03-12T09:47:25.832Z,7.01
2023-03-12T09:49:58.116Z,7.18
2023-03-12T09:52:33.272Z,7.24
2023-03-12T09:55:08.733Z,7.29
2023-03-12T09:57:38.274Z,7.45
2023-03-12T10:00:12.297Z,7.44
2023-03-12T10:03:12.222Z,7.43
2023-03-12T10:06:13.541Z,7.52
2023-03-12T10:09:08.732Z,7.59
2023-03-12T10:12:05.849Z,7.56
2023-03-12T10:14:56.409Z,7.57
2023-03-12T10:17:44.008Z,7.67
2023-03-12T10:20:40.815Z,7.76
2023-03-12T10:23:25.046Z,7.79
2023-03-12T10:26:06.229Z,7.78
2023-03-12T10:28:47.201Z,7.77
2023-03-12T10:31:28.910Z,7.76
2023-03-12T10:34:00.307Z,7.81
2023-03-12T10:36:37.618Z,7.75
2023-03-12T10:39:10.097Z,7.97
2023-03-12T10:41:39.935Z,8.07
2023-03-12T10:44:12.007Z,8.06
2023-03-12T10:47:00.977Z,8.27
2023-03-12T10:49:36.069Z,8.26
2023-03-12T10:52:08.453Z,8.38
2023-03-12T10:54:40.888Z,8.56
2023-03-12T10:57:09.631Z,8.47
2023-03-12T10:59:44.224Z,8.42
2023-03-12T11:02:33.021Z,8.60
2023-03-12T11:05:03.951Z,8.76
2023-03-12T11:07:35.652Z,8.83
2023-03-12T11:10:11.698Z,8.70
2023-03-12T11:12:41.980Z,8.85
2023-03-12T11:15:28.263Z,8.85
2023-03-12T11:18:22.694Z,9.06
2023-03-12T11:20:54.003Z,9.06
2023-03-12T11:23:26.300Z,9.02
2023-03-12T11:25:58.820Z,8.81
2023-03-12T11:28:37.419Z,8.72
2023-03-12T11:31:12.896Z,8.65
2023-03-12T11:33:42.539Z,8.48
2023-03-12T11:36:30.254Z,8.45
2023-03-12T11:39:08.807Z,8.69
2023-03-12T11:42:01.233Z,9.09
2023-03-12T11:44:36.326Z,9.34
2023-03-12T11:47:11.545Z,9.36
2023-03-12T11:50:01.942Z,9.53
2023-03-12T11:52:54.151Z,9.75
2023-03-12T11:56:00.254Z,9.98
2023-03-12T11:58:47.628Z,10.14
2023-03-12T12:01:35.167Z,10.62
2023-03-12T12:04:19.527Z,10.61
2023-03-12T12:07:04.404Z,10.70
2023-03-12T12:09:43.099Z,10.20
2023-03-12T12:12:24.826Z,10.38
2023-03-12T12:15:30.568Z,10.07
2023-03-12T12:18:28.993Z,10.06
2023-03-12T12:21:17.977Z,9.90
2023-03-12T12:23:54.913Z,9.87
2023-03-12T12:26:27.482Z,10.10
2023-03-12T12:29:15.082Z,10.33
2023-03-12T12:31:57.946Z,10.26
2023-03-12T12:34:33.484Z,10.25
2023-03-12T12:37:25.843Z,10.48
2023-03-12T12:40:17.878Z,10.51
2023-03-12T12:43:16.453Z,10.58
2023-03-12T12:45:46.741Z,10.40
2023-03-12T12:48:18.933Z,10.37
2023-03-12T12:50:49.232Z,10.32
2023-03-12T12:53:37.807Z,10.49
2023-03-12T12:56:28.832Z,10.50
2023-03-12T12:59:10.498Z,10.48
2023-03-12T13:01:40.434Z,10.45
2023-03-12T13:04:14.740Z,10.44
2023-03-12T13:07:05.471Z,10.50
2023-03-12T13:09:53.072Z,10.45
2023-03-12T13:12:42.125Z,10.59
2023-03-12T13:15:32.951Z,10.61
2023-03-12T13:18:23.951Z,10.80
2023-03-12T13:20:56.728Z,10.63
2023-03-12T13:23:31.737Z,10.71
2023-03-12T13:26:29.851Z,10.65
2023-03-12T13:29:12.373Z,10.89
2023-03-12T13:31:35.797Z,11.12
2023-03-12T13:34:11.588Z,11.33
2023-03-12T13:36:41.597Z,11.01
2023-03-12T13:39:21.212Z,10.82
2023-03-12T13:41:52.069Z,10.56
2023-03-12T13:44:30.524Z,10.51
2023-03-12T13:47:14.857Z,10.73
2023-03-12T13:49:55.692Z,10.47
2023-03-12T13:52:37.130Z,10.99
2023-03-12T13:55:24.918Z,11.31
2023-03-12T13:58:01.017Z,11.34
2023-03-12T14:00:42.237Z,11.58
2023-03-12T14:03:17.454Z,11.25
2023-03-12T14:06:08.150Z,10.91
2023-03-12T14:09:07.481Z,10.77
2023-03-12T14:11:51.566Z,10.82
2023-03-12T14:14:41.621Z,10.88
2023-03-12T14:17:20.570Z,11.13
2023-03-12T14:20:06.780Z,10.90
2023-03-12T14:22:38.358Z,11.00
2023-03-12T14:25:30.544Z,11.25
2023-03-12T14:27:59.921Z,11.42
2023-03-12T14:30:32.372Z,11.54
2023-03-12T14:33:03.379Z,11.49
2023-03-12T14:35:41.734Z,11.60
2023-03-12T14:38:35.611Z,11.33
2023-03-12T14:41:32.665Z,10.97
2023-03-12T14:44:13.937Z,10.70
2023-03-12T14:46:47.850Z,10.96
2023-03-12T14:49:23.464Z,10.94
2023-03-12T14:51:53.040Z,10.86
2023-03-12T14:54:25.316Z,10.87
2023-03-12T14:56:54.969Z,10.90
2023-03-12T14:59:27.992Z,10.85
2023-03-12T15:02:00.774Z,10.79
2023-03-12T15:04:31.033Z,10.75
2023-03-12T15:07:04.710Z,10.69
2023-03-12T15:09:36.324Z,10.75
2023-03-12T15:12:08.067Z,10.95
2023-03-12T15:14:39.743Z,10.70
2023-03-12T15:17:09.437Z,10.63
2023-03-12T15:19:40.436Z,10.68
2023-03-12T15:22:20.906Z,10.63
2023-03-12T15:24:50.346Z,10.50
2023-03-12T15:27:31.758Z,10.57
2023-03-12T15:30:01.648Z,10.61
2023-03-12T15:32:31.745Z,10.57
2023-03-12T15:35:01.693Z,10.69
2023-03-12T15:37:41.489Z,10.60
2023-03-12T15:40:25.249Z,10.52
2023-03-12T15:42:57.666Z,10.47
2023-03-12T15:45:30.436Z,10.46
2023-03-12T15:47:59.909Z,10.45
2023-03-12T15:50:31.255Z,10.43
2023-03-12T15:53:08.597Z,10.37
2023-03-12T15:55:37.866Z,10.41
2023-03-12T15:58:31.543Z,10.44
2023-03-12T16:01:13.310Z,10.36
2023-03-12T16:03:45.569Z,10.34
2023-03-12T16:06:18.138Z,10.30
2023-03-12T16:08:47.407Z,10.30
2023-03-12T16:11:20.073Z,10.28
2023-03-12T16:13:50.519Z,10.24
2023-03-12T16:16:20.214Z,10.22
2023-03-12T16:18:49.490Z,10.19
2023-03-12T16:21:18.840Z,10.18
2023-03-12T16:23:48.074Z,10.18
2023-03-12T16:26:17.404Z,10.14
2023-03-12T16:28:46.718Z,10.09
2023-03-12T16:31:17.479Z,10.11
2023-03-12T16:33:47.065Z,10.09
2023-03-12T16:36:19.219Z,10.02
2023-03-12T16:38:48.768Z,9.96
2023-03-12T16:41:19.772Z,9.89
2023-03-12T16:43:51.140Z,9.83
2023-03-12T16:46:22.453Z,9.72
2023-03-12T16:48:54.848Z,9.73
2023-03-12T16:51:24.581Z,9.74
2023-03-12T16:54:07.445Z,9.58
2023-03-12T16:56:26.642Z,9.46
2023-03-12T16:58:56.410Z,9.41
2023-03-12T17:01:29.154Z,9.31
2023-03-12T17:03:58.901Z,9.26
2023-03-12T17:06:28.592Z,9.19
2023-03-12T17:08:58.627Z,9.13
2023-03-12T17:11:32.782Z,9.13
2023-03-12T17:14:04.705Z,9.08
2023-03-12T17:16:34.194Z,9.06
2023-03-12T17:19:03.495Z,9.01
2023-03-12T17:21:32.725Z,9.01
2023-03-12T17:24:02.018Z,9.00
2023-03-12T17:26:31.238Z,8.96
2023-03-12T17:29:00.509Z,9.02
2023-03-12T17:31:29.855Z,9.02
2023-03-12T17:33:59.524Z,9.00
2023-03-12T17:36:28.885Z,9.00
2023-03-12T17:38:58.436Z,9.00
2023-03-12T17:41:27.668Z,9.06
2023-03-12T17:43:58.648Z,9.13
2023-03-12T17:46:28.254Z,9.12
2023-03-12T17:48:57.835Z,9.12
2023-03-12T17:51:27.368Z,9.21
2023-03-12T17:53:57.153Z,9.21
2023-03-12T17:56:26.367Z,9.24
2023-03-12T17:58:55.885Z,9.30
2023-03-12T18:01:25.293Z,9.35
2023-03-12T18:03:54.555Z,9.41
2023-03-12T18:06:23.789Z,9.36
2023-03-12T18:08:53.280Z,9.34
2023-03-12T18:11:22.549Z,9.35
2023-03-12T18:13:52.030Z,9.39
2023-03-12T18:16:21.344Z,9.38
2023-03-12T18:18:52.644Z,9.33
2023-03-12T18:21:21.838Z,9.37
2023-03-12T18:23:51.465Z,9.40
2023-03-12T18:26:21.019Z,9.40
2023-03-12T18:28:50.918Z,9.39
2023-03-12T18:31:20.590Z,9.39
2023-03-12T18:33:50.301Z,9.37
2023-03-12T18:36:20.073Z,9.35
2023-03-12T18:38:49.412Z,9.34
2023-03-12T18:41:19.102Z,9.32
2023-03-12T18:43:48.703Z,9.32
2023-03-12T18:46:19.102Z,9.28
2023-03-12T18:48:48.568Z,9.23
2023-03-12T18:51:18.156Z,9.25
2023-03-12T18:53:48.019Z,9.22
2023-03-12T18:56:17.495Z,9.24
2023-03-12T18:58:46.838Z,9.22
2023-03-12T19:01:16.203Z,9.26
2023-03-12T19:03:45.952Z,9.23
2023-03-12T19:06:17.193Z,9.25
2023-03-12T19:08:46.474Z,9.21
2023-03-12T19:11:16.627Z,9.25
2023-03-12T19:13:47.945Z,9.24
2023-03-12T19:16:19.017Z,9.20
2023-03-12T19:18:49.763Z,9.27
2023-03-12T19:21:19.447Z,9.24
2023-03-12T19:23:48.755Z,9.19
2023-03-12T19:26:18.349Z,9.09
2023-03-12T19:28:47.837Z,9.08
2023-03-12T19:31:17.309Z,9.11
2023-03-12T19:33:46.992Z,9.02
2023-03-12T19:36:16.524Z,8.90
2023-03-12T19:38:46.191Z,8.86
2023-03-12T19:41:16.084Z,8.78
2023-03-12T19:43:45.388Z,8.72
2023-03-12T19:46:14.956Z,8.79
2023-03-12T19:48:44.758Z,8.66
2023-03-12T19:51:14.045Z,8.51
2023-03-12T19:53:43.916Z,8.48
2023-03-12T19:56:13.181Z,8.38
2023-03-12T19:58:42.768Z,8.43
2023-03-12T20:01:12.124Z,8.51
2023-03-12T20:03:43.874Z,8.47
2023-03-12T20:06:13.555Z,8.39
2023-03-12T20:08:44.625Z,8.39
2023-03-12T20:11:13.883Z,8.29
2023-03-12T20:13:43.137Z,8.23
2023-03-12T20:16:13.889Z,8.10
2023-03-12T20:18:43.557Z,7.99
2023-03-12T20:21:12.845Z,7.93
2023-03-12T20:23:42.329Z,8.04
2023-03-12T20:26:12.241Z,8.09
2023-03-12T20:28:42.118Z,8.07
2023-03-12T20:31:14.101Z,8.06
2023-03-12T20:33:43.988Z,8.08
2023-03-12T20:36:14.448Z,8.01
2023-03-12T20:38:44.627Z,7.96
2023-03-12T20:41:15.612Z,7.96
2023-03-12T20:43:46.096Z,7.92
2023-03-12T20:46:15.682Z,7.97
2023-03-12T20:48:45.152Z,8.03
2023-03-12T20:51:14.980Z,8.03
2023-03-12T20:53:44.332Z,8.07
2023-03-12T20:56:14.033Z,8.15
2023-03-12T20:58:43.276Z,8.14
2023-03-12T21:01:12.976Z,8.15
2023-03-12T21:03:42.366Z,8.19
2023-03-12T21:06:11.909Z,8.23
2023-03-12T21:08:41.158Z,8.21
2023-03-12T21:11:10.614Z,8.18
2023-03-12T21:13:40.275Z,8.26
2023-03-12T21:16:11.760Z,8.27
2023-03-12T21:18:41.167Z,8.29
2023-03-12T21:21:11.054Z,8.28
2023-03-12T21:23:40.430Z,8.40
2023-03-12T21:26:09.938Z,8.36
2023-03-12T21:28:39.312Z,8.43
2023-03-12T21:31:11.610Z,8.61
2023-03-12T21:33:41.044Z,8.59
2023-03-12T21:36:12.597Z,8.69
2023-03-12T21:38:44.335Z,8.69
2023-03-12T21:41:16.078Z,8.77
2023-03-12T21:43:47.508Z,8.82
2023-03-12T21:46:20.383Z,8.89
2023-03-12T21:48:56.064Z,8.91
2023-03-12T21:51:30.134Z,8.85
2023-03-12T21:54:06.544Z,8.83
2023-03-12T21:56:37.522Z,8.76
2023-03-12T21:59:13.319Z,8.74
2023-03-12T22:01:45.009Z,8.64
2023-03-12T22:04:16.210Z,8.63
2023-03-12T22:06:46.944Z,8.58
2023-03-12T22:09:18.629Z,8.57
2023-03-12T22:11:49.605Z,8.61
2023-03-12T22:14:28.784Z,8.56
2023-03-12T22:17:01.992Z,8.56
2023-03-12T22:19:33.261Z,8.46
2023-03-12T22:22:04.036Z,8.50
2023-03-12T22:24:34.259Z,8.46
2023-03-12T22:27:06.454Z,8.43
2023-03-12T22:29:37.811Z,8.56
2023-03-12T22:32:07.773Z,8.53
2023-03-12T22:34:37.608Z,8.37
2023-03-12T22:37:07.648Z,8.41
2023-03-12T22:39:37.132Z,8.25
2023-03-12T22:42:06.536Z,8.23
2023-03-12T22:44:39.276Z,8.21
2023-03-12T22:47:15.989Z,8.28
2023-03-12T22:49:46.668Z,8.27
2023-03-12T22:52:16.160Z,8.24
2023-03-12T22:54:45.396Z,8.27
2023-03-12T22:57:14.669Z,8.30
2023-03-12T22:59:43.915Z,8.26
2023-03-12T23:02:13.226Z,8.23
2023-03-12T23:04:42.601Z,8.33
2023-03-12T23:07:16.890Z,8.34
2023-03-12T23:09:45.234Z,8.39
2023-03-12T23:12:14.500Z,8.38
2023-03-12T23:14:43.786Z,8.33
2023-03-12T23:17:13.449Z,8.42
2023-03-12T23:19:43.002Z,8.45
2023-03-12T23:22:12.929Z,8.47
2023-03-12T23:24:42.330Z,8.43
2023-03-12T23:27:11.649Z,8.42
2023-03-12T23:29:40.954Z,8.45
2023-03-12T23:32:10.353Z,8.42
2023-03-12T23:34:39.594Z,8.43
2023-03-12T23:37:09.082Z,8.40
2023-03-12T23:39:53.578Z,8.38
2023-03-12T23:42:09.314Z,8.42
2023-03-12T23:44:39.083Z,8.42
2023-03-12T23:47:08.473Z,8.53
2023-03-12T23:49:37.949Z,8.50
2023-03-12T23:52:07.571Z,8.40
2023-03-12T23:54:37.011Z,8.36
2023-03-12T23:57:06.371Z,8.36
2023-03-12T23:59:35.882Z,8.39
